createdAt,value
2022-10-29T00:00:29.282Z,13.10
2022-10-29T00:03:17.224Z,12.88
2022-10-29T00:06:07.759Z,13.22
2022-10-29T00:08:57.069Z,13.53
2022-10-29T00:11:43.536Z,14.13
2022-10-29T00:14:30.059Z,14.62
2022-10-29T00:17:16.959Z,14.45
2022-10-29T00:20:04.775Z,14.72
2022-10-29T00:22:55.397Z,13.72
2022-10-29T00:25:42.009Z,13.35
2022-10-29T00:28:27.925Z,13.38
2022-10-29T00:31:15.076Z,13.43
2022-10-29T00:34:01.655Z,13.95
2022-10-29T00:36:48.136Z,14.52
2022-10-29T00:39:34.891Z,14.66
2022-10-29T00:42:21.197Z,15.03
2022-10-29T00:45:07.587Z,14.42
2022-10-29T00:47:54.429Z,14.63
2022-10-29T00:50:40.820Z,14.76
2022-10-29T00:53:28.327Z,15.18
2022-10-29T00:56:15.039Z,15.39
2022-10-29T00:59:01.619Z,15.42
2022-10-29T01:01:47.839Z,15.08
2022-10-29T01:04:34.361Z,15.01
2022-10-29T01:07:20.853Z,14.72
2022-10-29T01:10:08.929Z,14.94
2022-10-29T01:12:57.408Z,15.30
2022-10-29T01:16:03.078Z,15.27
2022-10-29T01:18:49.295Z,15.37
2022-10-29T01:21:45.382Z,15.43
2022-10-29T01:24:45.776Z,15.40
2022-10-29T01:27:51.278Z,15.20
2022-10-29T01:30:55.933Z,15.10
2022-10-29T01:33:48.433Z,15.29
2022-10-29T01:36:40.111Z,15.05
2022-10-29T01:39:26.537Z,15.01
2022-10-29T01:42:15.415Z,15.09
2022-10-29T01:45:11.126Z,15.09
2022-10-29T01:47:59.422Z,14.48
2022-10-29T01:50:46.636Z,14.60
2022-10-29T01:53:33.711Z,14.81
2022-10-29T01:56:21.680Z,14.79
2022-10-29T01:59:18.242Z,15.09
2022-10-29T02:02:34.182Z,14.50
2022-10-29T02:05:32.707Z,14.68
2022-10-29T02:08:27.814Z,14.56
2022-10-29T02:11:24.774Z,14.42
2022-10-29T02:14:13.385Z,13.38
2022-10-29T02:17:00.240Z,12.02
2022-10-29T02:19:45.995Z,13.01
2022-10-29T02:22:32.937Z,13.38
2022-10-29T02:25:19.000Z,14.00
2022-10-29T02:28:06.052Z,14.49
2022-10-29T02:30:51.843Z,14.34
2022-10-29T02:33:37.946Z,13.92
2022-10-29T02:36:23.971Z,14.29
2022-10-29T02:39:10.269Z,13.12
2022-10-29T02:41:56.298Z,13.81
2022-10-29T02:44:42.154Z,14.53
2022-10-29T02:47:28.278Z,14.15
2022-10-29T02:50:14.319Z,14.37
2022-10-29T02:53:00.794Z,14.78
2022-10-29T02:55:47.204Z,14.78
2022-10-29T02:58:33.634Z,14.57
2022-10-29T03:01:19.678Z,13.18
2022-10-29T03:04:06.936Z,13.78
2022-10-29T03:06:53.508Z,14.31
2022-10-29T03:09:39.620Z,13.47
2022-10-29T03:12:26.297Z,13.01
2022-10-29T03:15:12.672Z,13.40
2022-10-29T03:18:05.144Z,14.21
2022-10-29T03:20:51.746Z,13.75
2022-10-29T03:23:38.797Z,14.16
2022-10-29T03:26:24.900Z,14.31
2022-10-29T03:29:11.108Z,14.34
2022-10-29T03:31:58.136Z,14.62
2022-10-29T03:34:43.942Z,14.51
2022-10-29T03:37:30.336Z,14.42
2022-10-29T03:40:16.895Z,14.59
2022-10-29T03:43:04.002Z,14.62
2022-10-29T03:45:53.567Z,14.65
2022-10-29T03:48:41.751Z,13.85
2022-10-29T03:51:27.732Z,14.34
2022-10-29T03:54:13.987Z,14.35
2022-10-29T03:56:59.920Z,14.62
2022-10-29T03:59:49.900Z,14.37
2022-10-29T04:02:38.254Z,14.27
2022-10-29T04:05:26.499Z,14.43
2022-10-29T04:08:16.204Z,14.42
2022-10-29T04:11:04.734Z,14.41
2022-10-29T04:13:55.897Z,14.19
2022-10-29T04:16:43.701Z,14.47
2022-10-29T04:19:30.144Z,14.32
2022-10-29T04:28:48.009Z,13.31
2022-10-29T04:31:34.288Z,14.22
2022-10-29T04:34:21.876Z,14.64
2022-10-29T04:37:07.962Z,13.67
2022-10-29T04:39:54.075Z,14.17
2022-10-29T04:42:40.302Z,14.47
2022-10-29T04:45:29.781Z,13.77
2022-10-29T04:48:20.094Z,14.58
2022-10-29T04:51:06.794Z,14.63
2022-10-29T04:53:54.760Z,14.44
2022-10-29T04:56:44.011Z,14.76
2022-10-29T04:59:30.799Z,13.72
2022-10-29T05:02:18.513Z,13.68
2022-10-29T05:05:08.579Z,13.53
2022-10-29T05:07:58.185Z,14.19
2022-10-29T05:10:44.415Z,14.35
2022-10-29T05:16:25.691Z,13.49
2022-10-29T05:19:16.711Z,12.64
2022-10-29T05:22:03.228Z,13.93
2022-10-29T05:24:56.904Z,13.99
2022-10-29T05:27:44.559Z,14.28
2022-10-29T05:30:41.803Z,14.35
2022-10-29T05:33:35.882Z,13.85
2022-10-29T05:36:22.802Z,14.22
2022-10-29T05:39:11.042Z,13.18
2022-10-29T05:42:10.486Z,13.93
2022-10-29T05:44:59.302Z,14.18
2022-10-29T05:47:53.514Z,14.31
2022-10-29T05:50:41.861Z,12.91
2022-10-29T05:53:31.912Z,12.86
2022-10-29T05:56:19.499Z,13.56
2022-10-29T05:59:06.886Z,13.53
2022-10-29T06:01:56.881Z,13.95
2022-10-29T06:16:06.360Z,13.80
2022-10-29T06:18:55.180Z,13.65
2022-10-29T06:21:49.183Z,14.14
2022-10-29T06:24:38.422Z,14.48
2022-10-29T06:27:44.180Z,14.25
2022-10-29T06:30:35.428Z,14.08
2022-10-29T06:33:25.207Z,13.82
2022-10-29T06:36:14.001Z,14.57
2022-10-29T06:39:03.127Z,13.88
2022-10-29T06:41:52.394Z,14.45
2022-10-29T06:44:44.207Z,14.50
2022-10-29T06:47:35.262Z,14.16
2022-10-29T06:50:21.945Z,12.89
2022-10-29T06:53:22.198Z,14.02
2022-10-29T06:56:10.625Z,14.47
2022-10-29T06:59:17.144Z,14.89
2022-10-29T07:02:05.530Z,14.58
2022-10-29T07:04:54.364Z,14.42
2022-10-29T07:07:41.686Z,14.88
2022-10-29T07:10:30.592Z,13.36
2022-10-29T07:13:26.654Z,14.11
2022-10-29T07:16:18.545Z,14.29
2022-10-29T07:19:07.174Z,13.40
2022-10-29T07:22:02.352Z,12.90
2022-10-29T07:24:53.045Z,11.95
2022-10-29T07:27:45.964Z,13.60
2022-10-29T07:30:34.427Z,13.89
2022-10-29T07:33:22.186Z,13.27
2022-10-29T07:36:20.527Z,12.95
2022-10-29T07:39:14.180Z,12.98
2022-10-29T07:42:06.896Z,13.98
2022-10-29T07:44:56.627Z,14.55
2022-10-29T07:47:43.317Z,14.45
2022-10-29T07:50:33.200Z,14.02
2022-10-29T07:53:23.652Z,14.24
2022-10-29T07:56:12.435Z,14.71
2022-10-29T07:59:01.281Z,15.12
2022-10-29T08:01:52.300Z,15.09
2022-10-29T08:04:44.160Z,13.92
2022-10-29T08:07:32.400Z,12.73
2022-10-29T08:10:25.130Z,12.63
2022-10-29T08:13:20.734Z,13.95
2022-10-29T08:16:09.205Z,14.53
2022-10-29T08:18:57.765Z,13.31
2022-10-29T08:21:47.154Z,14.11
2022-10-29T08:24:36.148Z,13.70
2022-10-29T08:27:25.350Z,14.55
2022-10-29T08:30:17.299Z,14.73
2022-10-29T08:33:07.208Z,14.37
2022-10-29T08:35:59.944Z,12.36
2022-10-29T08:38:48.008Z,12.68
2022-10-29T08:41:50.546Z,12.26
2022-10-29T08:44:56.164Z,12.39
2022-10-29T08:47:57.325Z,13.04
2022-10-29T08:50:48.473Z,14.27
2022-10-29T08:53:45.538Z,14.50
2022-10-29T08:56:44.196Z,14.65
2022-10-29T08:59:36.371Z,14.89
2022-10-29T09:02:25.204Z,14.94
2022-10-29T09:05:17.916Z,14.73
2022-10-29T09:08:11.308Z,14.58
2022-10-29T09:11:06.152Z,15.00
2022-10-29T09:14:20.198Z,14.84
2022-10-29T09:17:18.922Z,13.62
2022-10-29T09:23:44.753Z,14.37
2022-10-29T09:26:38.598Z,14.71
2022-10-29T09:29:45.206Z,14.18
2022-10-29T09:32:57.886Z,13.60
2022-10-29T09:35:48.293Z,14.52
2022-10-29T09:39:04.113Z,14.70
2022-10-29T09:41:55.735Z,14.04
2022-10-29T09:44:56.317Z,14.76
2022-10-29T09:48:31.446Z,14.04
2022-10-29T09:51:39.427Z,13.01
2022-10-29T09:54:29.664Z,14.73
2022-10-29T09:57:32.130Z,14.39
2022-10-29T10:00:32.431Z,13.56
2022-10-29T10:03:31.034Z,14.34
2022-10-29T10:06:20.209Z,15.24
2022-10-29T10:09:11.803Z,14.94
2022-10-29T10:12:00.179Z,15.50
2022-10-29T10:14:49.848Z,14.12
2022-10-29T10:18:00.774Z,14.61
2022-10-29T10:21:12.995Z,15.17
2022-10-29T10:24:02.568Z,15.65
2022-10-29T10:26:49.228Z,14.98
2022-10-29T10:29:41.489Z,14.06
2022-10-29T10:32:43.443Z,14.31
2022-10-29T10:35:37.219Z,15.24
2022-10-29T10:38:45.714Z,15.25
2022-10-29T10:41:41.251Z,14.78
2022-10-29T10:44:34.217Z,13.60
2022-10-29T10:47:27.059Z,14.83
2022-10-29T10:50:37.789Z,14.16
2022-10-29T10:53:25.142Z,14.82
2022-10-29T10:56:27.268Z,13.65
2022-10-29T10:59:30.194Z,15.01
2022-10-29T11:03:00.681Z,15.44
2022-10-29T11:06:00.181Z,14.70
2022-10-29T11:09:00.561Z,14.90
2022-10-29T11:12:01.191Z,14.47
2022-10-29T11:14:57.209Z,15.33
2022-10-29T11:18:32.215Z,15.42
2022-10-29T11:21:47.252Z,14.49
2022-10-29T11:24:48.222Z,15.04
2022-10-29T11:28:27.263Z,15.29
2022-10-29T11:31:32.679Z,15.29
2022-10-29T11:34:47.567Z,14.53
2022-10-29T11:38:22.268Z,14.17
2022-10-29T11:41:39.168Z,14.66
2022-10-29T11:44:28.617Z,15.26
2022-10-29T11:47:55.551Z,15.71
2022-10-29T11:51:00.674Z,15.65
2022-10-29T11:54:15.374Z,14.75
2022-10-29T11:57:17.194Z,13.76
2022-10-29T12:03:39.220Z,13.70
2022-10-29T12:06:45.971Z,13.88
2022-10-29T12:09:54.130Z,13.68
2022-10-29T12:12:57.166Z,13.85
2022-10-29T12:16:16.320Z,14.73
2022-10-29T12:19:47.946Z,15.39
2022-10-29T12:23:05.019Z,15.37
2022-10-29T12:26:10.647Z,15.74
2022-10-29T12:29:29.168Z,15.99
2022-10-29T12:33:08.361Z,16.08
2022-10-29T12:36:04.467Z,15.99
2022-10-29T12:38:54.552Z,14.31
2022-10-29T12:41:46.617Z,13.92
2022-10-29T12:44:49.173Z,13.61
2022-10-29T12:51:10.163Z,14.42
2022-10-29T12:54:29.774Z,15.02
2022-10-29T12:57:21.468Z,15.68
2022-10-29T13:04:01.176Z,15.57
2022-10-29T13:07:04.634Z,14.89
2022-10-29T13:10:25.313Z,14.29
2022-10-29T13:13:35.338Z,13.66
2022-10-29T13:16:25.954Z,14.26
2022-10-29T13:19:32.379Z,14.16
2022-10-29T13:23:01.213Z,14.26
2022-10-29T13:25:54.275Z,15.03
2022-10-29T13:28:41.213Z,14.09
2022-10-29T13:31:36.185Z,15.26
2022-10-29T13:34:55.733Z,15.69
2022-10-29T13:37:53.701Z,15.71
2022-10-29T13:40:56.316Z,13.72
2022-10-29T13:44:15.635Z,13.76
2022-10-29T13:47:22.147Z,13.62
2022-10-29T13:50:18.167Z,13.10
2022-10-29T13:53:13.457Z,13.65
2022-10-29T13:56:14.877Z,13.94
2022-10-29T13:59:20.180Z,14.77
2022-10-29T14:02:22.623Z,14.18
2022-10-29T14:05:21.832Z,15.24
2022-10-29T14:08:19.041Z,14.01
2022-10-29T14:11:17.149Z,13.66
2022-10-29T14:14:21.864Z,13.44
2022-10-29T14:17:19.664Z,13.43
2022-10-29T14:20:36.016Z,13.12
2022-10-29T14:23:24.184Z,14.08
2022-10-29T14:26:23.842Z,13.72
2022-10-29T14:29:26.401Z,14.40
2022-10-29T14:32:22.721Z,14.60
2022-10-29T14:35:18.945Z,13.37
2022-10-29T14:38:12.312Z,13.52
2022-10-29T14:41:04.131Z,13.46
2022-10-29T14:44:02.119Z,14.21
2022-10-29T14:47:00.391Z,12.73
2022-10-29T14:49:56.830Z,12.52
2022-10-29T14:52:53.704Z,12.96
2022-10-29T14:55:47.430Z,12.97
2022-10-29T14:58:38.375Z,12.35
2022-10-29T15:01:30.305Z,12.70
2022-10-29T15:04:23.477Z,13.61
2022-10-29T15:07:22.759Z,13.59
2022-10-29T15:10:26.556Z,13.67
2022-10-29T15:13:31.978Z,13.20
2022-10-29T15:16:31.860Z,13.94
2022-10-29T15:19:22.882Z,14.26
2022-10-29T15:22:14.504Z,15.08
2022-10-29T15:25:04.149Z,14.51
2022-10-29T15:27:57.341Z,15.16
2022-10-29T15:30:50.400Z,14.83
2022-10-29T15:33:47.354Z,14.72
2022-10-29T15:40:01.345Z,14.54
2022-10-29T15:42:49.565Z,14.67
2022-10-29T15:45:57.267Z,15.20
2022-10-29T15:48:51.188Z,14.94
2022-10-29T15:51:41.756Z,14.28
2022-10-29T15:54:33.226Z,14.52
2022-10-29T15:57:25.163Z,15.19
2022-10-29T16:00:25.336Z,13.73
2022-10-29T16:03:21.476Z,14.74
2022-10-29T16:06:11.168Z,13.61
2022-10-29T16:09:00.224Z,14.10
2022-10-29T16:11:50.857Z,13.53
2022-10-29T16:17:34.653Z,15.04
2022-10-29T16:20:33.156Z,14.85
2022-10-29T16:23:20.640Z,15.27
2022-10-29T16:29:30.285Z,14.39
2022-10-29T16:32:25.019Z,14.96
2022-10-29T16:35:34.180Z,14.96
2022-10-29T16:38:25.308Z,15.09
2022-10-29T16:41:19.708Z,14.75
2022-10-29T16:44:13.965Z,15.23
2022-10-29T16:47:14.290Z,15.42
2022-10-29T16:50:12.611Z,15.44
2022-10-29T16:53:11.315Z,15.29
2022-10-29T16:55:58.675Z,15.03
2022-10-29T16:58:45.898Z,14.94
2022-10-29T17:01:49.183Z,14.95
2022-10-29T17:04:38.213Z,14.10
2022-10-29T17:07:37.078Z,15.54
2022-10-29T17:13:25.799Z,15.69
2022-10-29T17:16:17.185Z,14.09
2022-10-29T17:19:08.232Z,13.98
2022-10-29T17:22:04.213Z,12.66
2022-10-29T17:24:55.167Z,12.37
2022-10-29T17:27:42.985Z,12.33
2022-10-29T17:30:34.066Z,13.79
2022-10-29T17:33:23.184Z,13.84
2022-10-29T17:36:21.167Z,13.22
2022-10-29T17:39:23.173Z,14.41
2022-10-29T17:48:25.515Z,14.36
2022-10-29T17:51:14.815Z,14.33
2022-10-29T17:54:05.303Z,13.47
2022-10-29T17:57:01.538Z,12.89
2022-10-29T18:03:09.207Z,12.11
2022-10-29T18:06:05.185Z,12.69
2022-10-29T18:09:01.864Z,12.99
2022-10-29T18:11:58.352Z,12.53
2022-10-29T18:14:48.186Z,12.78
2022-10-29T18:17:49.201Z,12.89
2022-10-29T18:20:45.426Z,13.34
2022-10-29T18:23:32.870Z,13.09
2022-10-29T18:26:32.303Z,13.89
2022-10-29T18:29:21.157Z,13.11
2022-10-29T18:32:14.377Z,13.79
2022-10-29T18:35:07.185Z,13.47
2022-10-29T18:38:01.239Z,13.86
2022-10-29T18:40:58.474Z,13.24
2022-10-29T18:44:01.182Z,13.35
2022-10-29T18:46:49.187Z,12.89
2022-10-29T18:49:38.791Z,12.74
2022-10-29T18:52:36.188Z,13.23
2022-10-29T18:55:30.226Z,13.32
2022-10-29T18:58:24.221Z,12.53
2022-10-29T19:01:15.513Z,12.87
2022-10-29T19:04:09.178Z,14.06
2022-10-29T19:07:14.148Z,14.05
2022-10-29T19:10:08.820Z,14.12
2022-10-29T19:13:02.241Z,14.29
2022-10-29T19:16:07.407Z,14.98
2022-10-29T19:19:00.395Z,14.17
2022-10-29T19:21:56.352Z,13.95
2022-10-29T19:25:04.248Z,13.49
2022-10-29T19:28:06.219Z,14.44
2022-10-29T19:30:57.300Z,15.10
2022-10-29T19:33:53.171Z,14.30
2022-10-29T19:36:45.205Z,14.51
2022-10-29T19:39:32.683Z,14.12
2022-10-29T19:42:20.353Z,13.24
2022-10-29T19:45:10.163Z,12.80
2022-10-29T19:48:04.470Z,13.68
2022-10-29T19:53:51.556Z,13.10
2022-10-29T19:56:43.333Z,12.73
2022-10-29T19:59:29.773Z,13.32
2022-10-29T20:02:18.989Z,13.97
2022-10-29T20:05:11.836Z,14.58
2022-10-29T20:08:10.006Z,14.31
2022-10-29T20:11:05.409Z,14.76
2022-10-29T20:13:53.050Z,14.59
2022-10-29T20:16:41.437Z,14.81
2022-10-29T20:19:29.250Z,14.01
2022-10-29T20:22:17.359Z,14.75
2022-10-29T20:25:05.450Z,14.71
2022-10-29T20:28:04.594Z,12.96
2022-10-29T20:31:23.528Z,14.01
2022-10-29T20:34:12.773Z,14.05
2022-10-29T20:39:52.580Z,14.35
2022-10-29T20:42:41.688Z,14.39
2022-10-29T20:45:30.617Z,14.89
2022-10-29T20:48:17.467Z,13.82
2022-10-29T20:51:07.410Z,13.38
2022-10-29T20:53:55.465Z,13.73
2022-10-29T20:56:44.456Z,14.16
2022-10-29T20:59:43.284Z,14.13
2022-10-29T21:02:31.193Z,14.78
2022-10-29T21:05:27.197Z,14.90
2022-10-29T21:08:14.408Z,13.99
2022-10-29T21:11:02.450Z,14.82
2022-10-29T21:13:53.125Z,14.13
2022-10-29T21:16:41.215Z,14.03
2022-10-29T21:19:40.436Z,13.33
2022-10-29T21:22:27.632Z,13.78
2022-10-29T21:25:24.362Z,13.03
2022-10-29T21:28:18.385Z,13.81
2022-10-29T21:31:05.489Z,13.88
2022-10-29T21:33:52.950Z,13.77
2022-10-29T21:36:40.349Z,14.30
2022-10-29T21:39:30.605Z,13.99
2022-10-29T21:42:17.075Z,13.80
2022-10-29T21:45:06.179Z,14.99
2022-10-29T21:47:57.662Z,14.58
2022-10-29T21:50:44.989Z,13.79
2022-10-29T21:53:31.725Z,13.73
2022-10-29T21:56:21.445Z,13.06
2022-10-29T21:59:08.059Z,13.81
2022-10-29T22:01:56.950Z,13.07
2022-10-29T22:04:43.917Z,12.78
2022-10-29T22:07:30.937Z,12.66
2022-10-29T22:10:17.600Z,12.46
2022-10-29T22:13:07.981Z,13.34
2022-10-29T22:16:00.137Z,13.07
2022-10-29T22:18:46.903Z,13.85
2022-10-29T22:21:34.183Z,13.13
2022-10-29T22:24:20.672Z,13.13
2022-10-29T22:27:07.567Z,12.88
2022-10-29T22:29:54.574Z,12.49
2022-10-29T22:32:41.867Z,13.04
2022-10-29T22:35:28.585Z,13.74
2022-10-29T22:38:16.107Z,13.32
2022-10-29T22:41:10.366Z,13.68
2022-10-29T22:43:59.417Z,14.01
2022-10-29T22:46:45.270Z,14.12
2022-10-29T22:49:31.668Z,14.07
2022-10-29T22:52:18.070Z,13.88
2022-10-29T22:55:05.797Z,14.45
2022-10-29T22:57:52.043Z,14.38
2022-10-29T23:00:41.462Z,13.78
2022-10-29T23:03:28.679Z,14.55
2022-10-29T23:06:28.213Z,14.08
2022-10-29T23:09:15.378Z,14.05
2022-10-29T23:12:01.733Z,13.55
2022-10-29T23:14:48.600Z,14.11
2022-10-29T23:17:36.878Z,14.16
2022-10-29T23:20:23.509Z,14.38
2022-10-29T23:23:10.097Z,13.21
2022-10-29T23:26:01.150Z,12.32
2022-10-29T23:28:47.972Z,13.14
2022-10-29T23:31:33.995Z,12.95
2022-10-29T23:34:20.347Z,12.68
2022-10-29T23:37:09.809Z,13.09
2022-10-29T23:39:57.447Z,12.98
2022-10-29T23:42:43.641Z,13.22
2022-10-29T23:45:31.174Z,13.08
2022-10-29T23:48:20.749Z,13.43
2022-10-29T23:51:17.557Z,12.75
2022-10-29T23:54:05.714Z,12.96
2022-10-29T23:56:52.241Z,13.71
2022-10-29T23:59:38.627Z,13.27
